Ventura — ZCDT2 — position and weather

sailwx.info

Track history (hours):
 
Tides and Currents Weather Stations Pressure Air Temp Water Temp Dewpoint Dewpoint Depression Visibility Wind Speed Wind Dir Waves Ship Positions

Ventura

Last reported at 2014-Jul-27 18:00 UTC. Time now 2014-Jul-30 05:00 UTC.
Position N 39°48' E 018°30'.

Length 288 m; draft 8.4 m.

Type: Passenger vessel. MMSI: 310562000.

Wind from 170 at 13 knots

Waves 0.5 meters (2 feet), 6 second period

Barometer 1012.5 mb
Air temperature 25.5 ° C
Visibility: greater than 10.8 NM
Dewpoint 19.3 ° C
Water temperature 25.5 ° C

Date/timePositionNaut miles runAvg speedWind from/ knotsBaromVisibWave heightAir tempDewpointWater temp
2014-Jul-27 18:00N 39°48' E 018°30'6415.9 170 / 131012.510.8 0.525.519.325.5
2014-Jul-27 14:00N 39°00' E 017°36'106 8.8 190 / 201009.710.8 1.025.220.725.5
2014-Jul-27 02:00N 38°36' E 015°24'11216.0 290 / 211010.510.8 25.022.025.4
2014-Jul-26 19:00N 40°18' E 014°24'6 7.1 210 / 81011.410.8 0.526.721.223.0
2014-Jul-26 18:07N 40°24' E 014°23'915.7
2014-Jul-26 17:33N 40°32' E 014°19'1514.9
2014-Jul-26 16:33N 40°47' E 014°17'3 0.8
2014-Jul-26 12:07N 40°50' E 014°16'0 0.0
2014-Jul-26 05:29N 40°50' E 014°16'5 5.6
2014-Jul-26 04:33N 40°45' E 014°15'9 8.8
2014-Jul-26 03:33N 40°39' E 014°06'9 8.6
2014-Jul-26 02:33N 40°36' E 013°56'9 8.7
2014-Jul-26 01:33N 40°38' E 013°45'9 8.7
2014-Jul-26 00:33N 40°40' E 013°34'9 8.8
2014-Jul-25 23:33N 40°42' E 013°23'814.1
2014-Jul-25 23:00N 40°42' E 013°12'2 3.9 150 / 91013.210.8 23.517.125.1
2014-Jul-25 22:33N 40°44' E 013°11'9 8.7
2014-Jul-25 21:33N 40°46' E 013°00'10 8.7
2014-Jul-25 20:27N 40°48' E 012°48'8 8.7
2014-Jul-25 19:33N 40°50' E 012°38'10 8.6
2014-Jul-25 18:27N 40°54' E 012°27'2 4.6
2014-Jul-25 18:00N 40°54' E 012°24'40 9.9 180 / 71013.610.8 0.525.019.624.0
2014-Jul-25 14:00N 41°18' E 011°42'81 8.5 200 / 121015.510.8 25.820.024.3
2014-Jul-25 04:25N 42°08' E 010°16'23 9.4
2014-Jul-25 02:00N 42°24' E 009°54'27 7.9 150 / 31012.110.8 23.017.424.0
2014-Jul-24 22:32N 42°51' E 009°57'9 8.8
2014-Jul-24 21:33N 42°60' E 010°00'9 8.8
2014-Jul-24 20:33N 43°08' E 010°04'9 8.8
2014-Jul-24 19:33N 43°17' E 010°07'2 2.7
2014-Jul-24 19:00N 43°18' E 010°06'817.4 290 / 171012.110.8 0.524.016.721.4
2014-Jul-24 18:33N 43°25' E 010°10'8 8.3
2014-Jul-24 17:33N 43°32' E 010°16'2 0.4
2014-Jul-24 13:08N 43°33' E 010°18'0 0.0
2014-Jul-24 07:29N 43°33' E 010°18'0 0.0
2014-Jul-24 06:23N 43°33' E 010°18'0 0.0
2014-Jul-24 05:30N 43°33' E 010°18'4 4.0
2014-Jul-24 04:33N 43°30' E 010°14'7 6.7
2014-Jul-24 03:33N 43°27' E 010°06'8 8.4
2014-Jul-24 02:33N 43°33' E 009°58'8 8.4
2014-Jul-24 01:33N 43°37' E 009°48'4 7.7
2014-Jul-24 01:00N 43°36' E 009°42'715.1 270 / 91011.710.8 23.018.324.0
2014-Jul-24 00:33N 43°42' E 009°39'8 8.2
2014-Jul-23 23:33N 43°48' E 009°31'8 8.4
2014-Jul-23 22:33N 43°54' E 009°23'8 8.2
2014-Jul-23 21:33N 43°59' E 009°14'8 7.9
2014-Jul-23 20:33N 44°05' E 009°06'8 7.7
2014-Jul-23 19:33N 44°12' E 009°02'8 7.9
2014-Jul-23 18:33N 44°19' E 008°58'6 0.7
2014-Jul-23 10:09N 44°25' E 008°55'0 0.0
2014-Jul-23 03:33N 44°25' E 008°55'0 0.2
2014-Jul-23 02:33N 44°24' E 008°55'4 3.6
2014-Jul-23 01:33N 44°22' E 008°58'1515.1
2014-Jul-23 00:33N 44°07' E 008°57'1615.7
2014-Jul-22 23:33N 43°51' E 008°51'1615.8
2014-Jul-22 22:33N 43°36' E 008°44'1615.8
2014-Jul-22 21:33N 43°21' E 008°39'1615.8
2014-Jul-22 20:33N 43°06' E 008°33'1615.8
2014-Jul-22 19:33N 42°51' E 008°28'1615.7
2014-Jul-22 18:33N 42°35' E 008°22'1220.9
2014-Jul-22 18:00N 42°24' E 008°18'614.8 070 / 91009.310.8 23.019.123.0
2014-Jul-22 17:33N 42°20' E 008°24'1615.8
2014-Jul-22 16:33N 42°04' E 008°27'1515.1
2014-Jul-22 15:33N 41°49' E 008°32'43 3.2
2014-Jul-22 02:00N 41°18' E 009°12'11113.9 280 / 261008.510.8 1.520.719.123.0
2014-Jul-21 18:00N 42°00' E 011°30'17 1.1 240 / 241009.310.8 1.523.020.722.0
2014-Jul-21 02:30N 41°46' E 011°43'1616.4
2014-Jul-21 01:33N 41°34' E 011°56'2016.4
2014-Jul-21 00:21N 41°19' E 012°14'1316.5
2014-Jul-20 23:33N 41°09' E 012°25'1716.4
2014-Jul-20 22:32N 40°57' E 012°39'1716.4
2014-Jul-20 21:31N 40°45' E 012°54'1616.4
2014-Jul-20 20:32N 40°34' E 013°10'1616.4
2014-Jul-20 19:33N 40°23' E 013°26'1616.4
2014-Jul-20 18:33N 40°12' E 013°42'1322.5
2014-Jul-20 18:00N 40°00' E 013°48'717.1 250 / 101015.510.8 0.527.021.025.0
2014-Jul-20 17:33N 40°01' E 013°58'1616.4
2014-Jul-20 16:33N 39°50' E 014°13'1616.4
2014-Jul-20 15:33N 39°39' E 014°29'1627.5
2014-Jul-20 15:00N 39°24' E 014°36'817.9 180 / 31016.110.8 27.515.524.2
2014-Jul-20 14:33N 39°28' E 014°45'1221.0
2014-Jul-20 14:00N 39°18' E 014°54'813.4 300 / 41016.110.8 25.017.023.4
2014-Jul-20 13:25N 39°15' E 015°03'1516.4
2014-Jul-20 12:30N 39°05' E 015°17'1516.3
2014-Jul-20 11:33N 38°54' E 015°31'1616.3
2014-Jul-20 10:33N 38°38' E 015°37'1616.4
2014-Jul-20 09:33N 38°22' E 015°41'19812.7
2014-Jul-19 18:00N 39°06' E 019°48'250 5.4 340 / 301011.710.8 1.524.919.223.0
2014-Jul-17 20:00N 42°30' E 016°36'   320 / 171016.010.8 0.525.119.724.0
Track history (hours):
 
Tides and Currents Weather Stations Pressure Air Temp Water Temp Dewpoint Dewpoint Depression Visibility Wind Speed Wind Dir Waves Ship Positions

Ventura

Last reported at 2014-Jul-27 18:00 UTC. Time now 2014-Jul-30 05:00 UTC.
Position N 39°48' E 018°30'.

Length 288 m; draft 8.4 m.

Type: Passenger vessel. MMSI: 310562000.

Wind from 170 at 13 knots

Waves 0.5 meters (2 feet), 6 second period

Barometer 1012.5 mb
Air temperature 25.5 ° C
Visibility: greater than 10.8 NM
Dewpoint 19.3 ° C
Water temperature 25.5 ° C

Date/timePositionNaut miles runAvg speedWind from/ knotsBaromVisibWave heightAir tempDewpointWater temp
2014-Jul-27 18:00N 39°48' E 018°30'6415.9 170 / 131012.510.8 0.525.519.325.5
2014-Jul-27 14:00N 39°00' E 017°36'106 8.8 190 / 201009.710.8 1.025.220.725.5
2014-Jul-27 02:00N 38°36' E 015°24'11216.0 290 / 211010.510.8 25.022.025.4
2014-Jul-26 19:00N 40°18' E 014°24'6 7.1 210 / 81011.410.8 0.526.721.223.0
2014-Jul-26 18:07N 40°24' E 014°23'915.7
2014-Jul-26 17:33N 40°32' E 014°19'1514.9
2014-Jul-26 16:33N 40°47' E 014°17'3 0.8
2014-Jul-26 12:07N 40°50' E 014°16'0 0.0
2014-Jul-26 05:29N 40°50' E 014°16'5 5.6
2014-Jul-26 04:33N 40°45' E 014°15'9 8.8
2014-Jul-26 03:33N 40°39' E 014°06'9 8.6
2014-Jul-26 02:33N 40°36' E 013°56'9 8.7
2014-Jul-26 01:33N 40°38' E 013°45'9 8.7
2014-Jul-26 00:33N 40°40' E 013°34'9 8.8
2014-Jul-25 23:33N 40°42' E 013°23'814.1
2014-Jul-25 23:00N 40°42' E 013°12'2 3.9 150 / 91013.210.8 23.517.125.1
2014-Jul-25 22:33N 40°44' E 013°11'9 8.7
2014-Jul-25 21:33N 40°46' E 013°00'10 8.7
2014-Jul-25 20:27N 40°48' E 012°48'8 8.7
2014-Jul-25 19:33N 40°50' E 012°38'10 8.6
2014-Jul-25 18:27N 40°54' E 012°27'2 4.6
2014-Jul-25 18:00N 40°54' E 012°24'40 9.9 180 / 71013.610.8 0.525.019.624.0
2014-Jul-25 14:00N 41°18' E 011°42'81 8.5 200 / 121015.510.8 25.820.024.3
2014-Jul-25 04:25N 42°08' E 010°16'23 9.4
2014-Jul-25 02:00N 42°24' E 009°54'27 7.9 150 / 31012.110.8 23.017.424.0
2014-Jul-24 22:32N 42°51' E 009°57'9 8.8
2014-Jul-24 21:33N 42°60' E 010°00'9 8.8
2014-Jul-24 20:33N 43°08' E 010°04'9 8.8
2014-Jul-24 19:33N 43°17' E 010°07'2 2.7
2014-Jul-24 19:00N 43°18' E 010°06'817.4 290 / 171012.110.8 0.524.016.721.4
2014-Jul-24 18:33N 43°25' E 010°10'8 8.3
2014-Jul-24 17:33N 43°32' E 010°16'2 0.4
2014-Jul-24 13:08N 43°33' E 010°18'0 0.0
2014-Jul-24 07:29N 43°33' E 010°18'0 0.0
2014-Jul-24 06:23N 43°33' E 010°18'0 0.0
2014-Jul-24 05:30N 43°33' E 010°18'4 4.0
2014-Jul-24 04:33N 43°30' E 010°14'7 6.7
2014-Jul-24 03:33N 43°27' E 010°06'8 8.4
2014-Jul-24 02:33N 43°33' E 009°58'8 8.4
2014-Jul-24 01:33N 43°37' E 009°48'4 7.7
2014-Jul-24 01:00N 43°36' E 009°42'715.1 270 / 91011.710.8 23.018.324.0
2014-Jul-24 00:33N 43°42' E 009°39'8 8.2
2014-Jul-23 23:33N 43°48' E 009°31'8 8.4
2014-Jul-23 22:33N 43°54' E 009°23'8 8.2
2014-Jul-23 21:33N 43°59' E 009°14'8 7.9
2014-Jul-23 20:33N 44°05' E 009°06'8 7.7
2014-Jul-23 19:33N 44°12' E 009°02'8 7.9
2014-Jul-23 18:33N 44°19' E 008°58'6 0.7
2014-Jul-23 10:09N 44°25' E 008°55'0 0.0
2014-Jul-23 03:33N 44°25' E 008°55'0 0.2
2014-Jul-23 02:33N 44°24' E 008°55'4 3.6
2014-Jul-23 01:33N 44°22' E 008°58'1515.1
2014-Jul-23 00:33N 44°07' E 008°57'1615.7
2014-Jul-22 23:33N 43°51' E 008°51'1615.8
2014-Jul-22 22:33N 43°36' E 008°44'1615.8
2014-Jul-22 21:33N 43°21' E 008°39'1615.8
2014-Jul-22 20:33N 43°06' E 008°33'1615.8
2014-Jul-22 19:33N 42°51' E 008°28'1615.7
2014-Jul-22 18:33N 42°35' E 008°22'1220.9
2014-Jul-22 18:00N 42°24' E 008°18'614.8 070 / 91009.310.8 23.019.123.0
2014-Jul-22 17:33N 42°20' E 008°24'1615.8
2014-Jul-22 16:33N 42°04' E 008°27'1515.1
2014-Jul-22 15:33N 41°49' E 008°32'43 3.2
2014-Jul-22 02:00N 41°18' E 009°12'11113.9 280 / 261008.510.8 1.520.719.123.0
2014-Jul-21 18:00N 42°00' E 011°30'17 1.1 240 / 241009.310.8 1.523.020.722.0
2014-Jul-21 02:30N 41°46' E 011°43'1616.4
2014-Jul-21 01:33N 41°34' E 011°56'2016.4
2014-Jul-21 00:21N 41°19' E 012°14'1316.5
2014-Jul-20 23:33N 41°09' E 012°25'1716.4
2014-Jul-20 22:32N 40°57' E 012°39'1716.4
2014-Jul-20 21:31N 40°45' E 012°54'1616.4
2014-Jul-20 20:32N 40°34' E 013°10'1616.4
2014-Jul-20 19:33N 40°23' E 013°26'1616.4
2014-Jul-20 18:33N 40°12' E 013°42'1322.5
2014-Jul-20 18:00N 40°00' E 013°48'717.1 250 / 101015.510.8 0.527.021.025.0
2014-Jul-20 17:33N 40°01' E 013°58'1616.4
2014-Jul-20 16:33N 39°50' E 014°13'1616.4
2014-Jul-20 15:33N 39°39' E 014°29'1627.5
2014-Jul-20 15:00N 39°24' E 014°36'817.9 180 / 31016.110.8 27.515.524.2
2014-Jul-20 14:33N 39°28' E 014°45'1221.0
2014-Jul-20 14:00N 39°18' E 014°54'813.4 300 / 41016.110.8 25.017.023.4
2014-Jul-20 13:25N 39°15' E 015°03'1516.4
2014-Jul-20 12:30N 39°05' E 015°17'1516.3
2014-Jul-20 11:33N 38°54' E 015°31'1616.3
2014-Jul-20 10:33N 38°38' E 015°37'1616.4
2014-Jul-20 09:33N 38°22' E 015°41'19812.7
2014-Jul-19 18:00N 39°06' E 019°48'250 5.4 340 / 301011.710.8 1.524.919.223.0
2014-Jul-17 20:00N 42°30' E 016°36'   320 / 171016.010.8 0.525.119.724.0

Dump ship's entire track history